sensor_id;sensor_type;location;lat;lon;timestamp;pressure;altitude;pressure_sealevel;temperature;humidity
85462;BME280;75865;42.672;23.360;2024-01-27T00:00:19;95572.84;;;4.42;55.07
85462;BME280;75865;42.672;23.360;2024-01-27T00:02:46;95552.91;;;4.41;55.23
85462;BME280;75865;42.672;23.360;2024-01-27T00:05:13;95540.88;;;4.40;55.26
85462;BME280;75865;42.672;23.360;2024-01-27T00:07:40;95542.72;;;4.39;55.02
85462;BME280;75865;42.672;23.360;2024-01-27T00:10:07;95553.69;;;4.41;54.88
85462;BME280;75865;42.672;23.360;2024-01-27T00:12:34;95559.69;;;4.42;54.81
85462;BME280;75865;42.672;23.360;2024-01-27T00:15:01;95554.09;;;4.43;54.95
85462;BME280;75865;42.672;23.360;2024-01-27T00:17:28;95555.28;;;4.46;55.17
85462;BME280;75865;42.672;23.360;2024-01-27T00:19:54;95543.25;;;4.45;54.77
85462;BME280;75865;42.672;23.360;2024-01-27T00:22:21;95535.38;;;4.45;54.52
85462;BME280;75865;42.672;23.360;2024-01-27T00:24:48;95529.00;;;4.46;54.92
85462;BME280;75865;42.672;23.360;2024-01-27T00:27:15;95537.66;;;4.46;54.58
85462;BME280;75865;42.672;23.360;2024-01-27T00:29:42;95538.75;;;4.45;54.99
85462;BME280;75865;42.672;23.360;2024-01-27T00:32:09;95548.50;;;4.45;54.96
85462;BME280;75865;42.672;23.360;2024-01-27T00:34:36;95542.50;;;4.44;54.88
85462;BME280;75865;42.672;23.360;2024-01-27T00:37:03;95535.03;;;4.46;55.05
85462;BME280;75865;42.672;23.360;2024-01-27T00:39:31;95533.94;;;4.47;55.05
85462;BME280;75865;42.672;23.360;2024-01-27T00:41:58;95534.59;;;4.44;55.09
85462;BME280;75865;42.672;23.360;2024-01-27T00:44:25;95533.56;;;4.49;55.53
85462;BME280;75865;42.672;23.360;2024-01-27T00:46:52;95538.16;;;4.52;55.30
85462;BME280;75865;42.672;23.360;2024-01-27T00:49:20;95540.44;;;4.53;54.79
85462;BME280;75865;42.672;23.360;2024-01-27T00:51:47;95538.16;;;4.52;54.82
85462;BME280;75865;42.672;23.360;2024-01-27T00:54:14;95535.59;;;4.55;55.52
85462;BME280;75865;42.672;23.360;2024-01-27T00:56:41;95525.84;;;4.56;55.00
85462;BME280;75865;42.672;23.360;2024-01-27T00:59:07;95528.47;;;4.56;55.31
85462;BME280;75865;42.672;23.360;2024-01-27T01:01:34;95528.91;;;4.58;54.89
85462;BME280;75865;42.672;23.360;2024-01-27T01:04:01;95518.38;;;4.58;55.20
85462;BME280;75865;42.672;23.360;2024-01-27T01:06:28;95522.53;;;4.59;55.44
85462;BME280;75865;42.672;23.360;2024-01-27T01:08:55;95525.56;;;4.61;54.97
85462;BME280;75865;42.672;23.360;2024-01-27T01:11:21;95518.81;;;4.60;55.60
85462;BME280;75865;42.672;23.360;2024-01-27T01:13:48;95524.13;;;4.63;55.10
85462;BME280;75865;42.672;23.360;2024-01-27T01:16:15;95530.16;;;4.64;55.38
85462;BME280;75865;42.672;23.360;2024-01-27T01:18:42;95532.09;;;4.67;55.36
85462;BME280;75865;42.672;23.360;2024-01-27T01:21:09;95545.69;;;4.69;55.30
85462;BME280;75865;42.672;23.360;2024-01-27T01:23:35;95537.03;;;4.68;56.29
85462;BME280;75865;42.672;23.360;2024-01-27T01:26:02;95538.56;;;4.69;55.98
85462;BME280;75865;42.672;23.360;2024-01-27T01:28:29;95525.41;;;4.69;56.36
85462;BME280;75865;42.672;23.360;2024-01-27T01:30:56;95526.50;;;4.68;56.06
85462;BME280;75865;42.672;23.360;2024-01-27T01:33:23;95525.06;;;4.71;55.94
85462;BME280;75865;42.672;23.360;2024-01-27T01:35:50;95522.84;;;4.73;55.49
85462;BME280;75865;42.672;23.360;2024-01-27T01:38:16;95520.19;;;4.73;55.45
85462;BME280;75865;42.672;23.360;2024-01-27T01:40:43;95512.75;;;4.75;55.68
85462;BME280;75865;42.672;23.360;2024-01-27T01:43:10;95517.66;;;4.77;55.86
85462;BME280;75865;42.672;23.360;2024-01-27T01:45:38;95512.91;;;4.82;55.72
85462;BME280;75865;42.672;23.360;2024-01-27T01:48:06;95504.31;;;4.85;55.38
85462;BME280;75865;42.672;23.360;2024-01-27T01:50:34;95500.91;;;4.85;54.81
85462;BME280;75865;42.672;23.360;2024-01-27T01:53:01;95494.16;;;4.84;54.97
85462;BME280;75865;42.672;23.360;2024-01-27T01:55:28;95505.91;;;4.90;54.54
85462;BME280;75865;42.672;23.360;2024-01-27T01:57:54;95510.81;;;4.91;54.71
85462;BME280;75865;42.672;23.360;2024-01-27T02:00:21;95497.69;;;4.91;54.59
85462;BME280;75865;42.672;23.360;2024-01-27T02:02:48;95493.53;;;4.90;54.94
85462;BME280;75865;42.672;23.360;2024-01-27T02:05:15;95499.22;;;4.92;54.62
85462;BME280;75865;42.672;23.360;2024-01-27T02:07:42;95495.13;;;4.95;54.89
85462;BME280;75865;42.672;23.360;2024-01-27T02:10:14;95487.25;;;4.95;54.99
85462;BME280;75865;42.672;23.360;2024-01-27T02:12:44;95475.31;;;5.01;54.44
85462;BME280;75865;42.672;23.360;2024-01-27T02:15:12;95477.69;;;5.06;54.19
85462;BME280;75865;42.672;23.360;2024-01-27T02:17:40;95475.53;;;5.12;54.22
85462;BME280;75865;42.672;23.360;2024-01-27T02:20:07;95470.69;;;5.14;54.58
85462;BME280;75865;42.672;23.360;2024-01-27T02:22:35;95472.63;;;5.17;53.61
85462;BME280;75865;42.672;23.360;2024-01-27T02:25:03;95479.06;;;5.19;53.88
85462;BME280;75865;42.672;23.360;2024-01-27T02:27:30;95489.66;;;5.23;53.39
85462;BME280;75865;42.672;23.360;2024-01-27T02:29:57;95476.84;;;5.21;53.43
85462;BME280;75865;42.672;23.360;2024-01-27T02:32:24;95476.56;;;5.26;53.03
85462;BME280;75865;42.672;23.360;2024-01-27T02:34:50;95472.06;;;5.27;53.15
85462;BME280;75865;42.672;23.360;2024-01-27T02:37:18;95467.56;;;5.27;52.77
85462;BME280;75865;42.672;23.360;2024-01-27T02:39:44;95475.13;;;5.29;52.73
85462;BME280;75865;42.672;23.360;2024-01-27T02:42:11;95488.31;;;5.32;52.80
85462;BME280;75865;42.672;23.360;2024-01-27T02:44:38;95489.50;;;5.35;52.47
85462;BME280;75865;42.672;23.360;2024-01-27T02:47:05;95482.03;;;5.37;52.09
85462;BME280;75865;42.672;23.360;2024-01-27T02:49:32;95473.00;;;5.38;52.47
85462;BME280;75865;42.672;23.360;2024-01-27T02:51:59;95474.19;;;5.40;52.36
85462;BME280;75865;42.672;23.360;2024-01-27T02:54:26;95473.84;;;5.42;52.28
85462;BME280;75865;42.672;23.360;2024-01-27T02:56:54;95470.91;;;5.47;52.56
85462;BME280;75865;42.672;23.360;2024-01-27T02:59:21;95465.22;;;5.45;52.90
85462;BME280;75865;42.672;23.360;2024-01-27T03:01:47;95475.66;;;5.38;53.25
85462;BME280;75865;42.672;23.360;2024-01-27T03:04:14;95477.44;;;5.34;53.88
85462;BME280;75865;42.672;23.360;2024-01-27T03:06:41;95479.41;;;5.18;53.59
85462;BME280;75865;42.672;23.360;2024-01-27T03:09:08;95492.00;;;5.08;54.09
85462;BME280;75865;42.672;23.360;2024-01-27T03:11:37;95497.22;;;5.05;54.78
85462;BME280;75865;42.672;23.360;2024-01-27T03:14:03;95487.59;;;4.93;54.98
85462;BME280;75865;42.672;23.360;2024-01-27T03:16:31;95481.81;;;4.88;55.51
85462;BME280;75865;42.672;23.360;2024-01-27T03:18:58;95487.28;;;4.79;55.60
85462;BME280;75865;42.672;23.360;2024-01-27T03:21:25;95483.13;;;4.78;55.57
85462;BME280;75865;42.672;23.360;2024-01-27T03:23:52;95478.56;;;4.75;56.27
85462;BME280;75865;42.672;23.360;2024-01-27T03:26:18;95489.69;;;4.68;56.13
85462;BME280;75865;42.672;23.360;2024-01-27T03:28:45;95485.13;;;4.65;55.94
85462;BME280;75865;42.672;23.360;2024-01-27T03:31:12;95482.91;;;4.67;54.96
85462;BME280;75865;42.672;23.360;2024-01-27T03:33:39;95483.38;;;4.73;55.15
85462;BME280;75865;42.672;23.360;2024-01-27T03:36:10;95471.16;;;4.81;55.63
85462;BME280;75865;42.672;23.360;2024-01-27T03:38:38;95474.44;;;4.93;56.34
85462;BME280;75865;42.672;23.360;2024-01-27T03:41:06;95462.84;;;4.98;56.31
85462;BME280;75865;42.672;23.360;2024-01-27T03:43:36;95465.28;;;5.06;58.09
85462;BME280;75865;42.672;23.360;2024-01-27T03:46:02;95456.69;;;5.09;58.28
85462;BME280;75865;42.672;23.360;2024-01-27T03:48:29;95467.38;;;5.17;58.70
85462;BME280;75865;42.672;23.360;2024-01-27T03:50:59;95462.91;;;5.21;58.94
85462;BME280;75865;42.672;23.360;2024-01-27T03:53:26;95457.72;;;5.24;59.53
85462;BME280;75865;42.672;23.360;2024-01-27T03:55:53;95458.22;;;5.30;59.32
85462;BME280;75865;42.672;23.360;2024-01-27T03:58:20;95463.19;;;5.35;59.32
85462;BME280;75865;42.672;23.360;2024-01-27T04:00:47;95466.66;;;5.39;59.40
85462;BME280;75865;42.672;23.360;2024-01-27T04:03:14;95463.31;;;5.42;59.45
85462;BME280;75865;42.672;23.360;2024-01-27T04:05:41;95460.69;;;5.42;59.88
85462;BME280;75865;42.672;23.360;2024-01-27T04:08:08;95469.38;;;5.46;60.23
85462;BME280;75865;42.672;23.360;2024-01-27T04:10:36;95460.38;;;5.47;60.04
85462;BME280;75865;42.672;23.360;2024-01-27T04:13:03;95461.91;;;5.48;60.23
85462;BME280;75865;42.672;23.360;2024-01-27T04:15:30;95464.19;;;5.50;61.02
85462;BME280;75865;42.672;23.360;2024-01-27T04:17:59;95454.88;;;5.56;60.64
85462;BME280;75865;42.672;23.360;2024-01-27T04:20:26;95443.25;;;5.57;61.01
85462;BME280;75865;42.672;23.360;2024-01-27T04:22:53;95450.09;;;5.61;60.82
85462;BME280;75865;42.672;23.360;2024-01-27T04:25:19;95451.28;;;5.64;61.03
85462;BME280;75865;42.672;23.360;2024-01-27T04:27:46;95455.44;;;5.65;61.37
85462;BME280;75865;42.672;23.360;2024-01-27T04:30:13;95458.47;;;5.67;60.84
85462;BME280;75865;42.672;23.360;2024-01-27T04:32:40;95458.13;;;5.68;60.92
85462;BME280;75865;42.672;23.360;2024-01-27T04:35:10;95455.47;;;5.68;60.41
85462;BME280;75865;42.672;23.360;2024-01-27T04:37:38;95461.09;;;5.67;60.07
85462;BME280;75865;42.672;23.360;2024-01-27T04:40:05;95461.09;;;5.67;60.53
85462;BME280;75865;42.672;23.360;2024-01-27T04:42:37;95453.94;;;5.67;60.45
85462;BME280;75865;42.672;23.360;2024-01-27T04:45:05;95451.75;;;5.69;60.90
85462;BME280;75865;42.672;23.360;2024-01-27T04:47:32;95456.59;;;5.67;60.72
85462;BME280;75865;42.672;23.360;2024-01-27T04:49:59;95453.25;;;5.70;60.81
85462;BME280;75865;42.672;23.360;2024-01-27T04:52:26;95455.63;;;5.75;60.67
85462;BME280;75865;42.672;23.360;2024-01-27T04:54:54;95463.94;;;5.77;61.23
85462;BME280;75865;42.672;23.360;2024-01-27T04:57:20;95464.38;;;5.83;61.13
85462;BME280;75865;42.672;23.360;2024-01-27T04:59:47;95467.09;;;5.87;61.15
85462;BME280;75865;42.672;23.360;2024-01-27T05:02:15;95465.97;;;5.88;61.83
85462;BME280;75865;42.672;23.360;2024-01-27T05:04:41;95468.97;;;5.86;62.28
85462;BME280;75865;42.672;23.360;2024-01-27T05:07:08;95467.84;;;5.87;62.06
85462;BME280;75865;42.672;23.360;2024-01-27T05:09:35;95467.53;;;5.89;62.01
85462;BME280;75865;42.672;23.360;2024-01-27T05:12:02;95474.31;;;5.90;62.19
85462;BME280;75865;42.672;23.360;2024-01-27T05:14:29;95474.31;;;5.90;62.85
85462;BME280;75865;42.672;23.360;2024-01-27T05:16:56;95481.47;;;5.89;63.08
85462;BME280;75865;42.672;23.360;2024-01-27T05:19:23;95477.31;;;5.88;63.17
85462;BME280;75865;42.672;23.360;2024-01-27T05:21:50;95478.06;;;5.89;63.50
85462;BME280;75865;42.672;23.360;2024-01-27T05:24:17;95476.84;;;5.86;64.16
85462;BME280;75865;42.672;23.360;2024-01-27T05:26:43;95473.88;;;5.88;63.80
85462;BME280;75865;42.672;23.360;2024-01-27T05:29:10;95479.94;;;5.88;64.13
85462;BME280;75865;42.672;23.360;2024-01-27T05:31:37;95494.25;;;5.91;64.61
85462;BME280;75865;42.672;23.360;2024-01-27T05:34:04;95479.22;;;5.91;65.02
85462;BME280;75865;42.672;23.360;2024-01-27T05:36:31;95477.41;;;5.95;64.72
85462;BME280;75865;42.672;23.360;2024-01-27T05:38:58;95480.38;;;5.94;65.45
85462;BME280;75865;42.672;23.360;2024-01-27T05:41:26;95481.91;;;5.95;65.53
85462;BME280;75865;42.672;23.360;2024-01-27T05:43:56;95475.13;;;5.94;65.55
85462;BME280;75865;42.672;23.360;2024-01-27T05:46:25;95475.47;;;5.92;65.89
85462;BME280;75865;42.672;23.360;2024-01-27T05:48:52;95484.91;;;5.93;66.42
85462;BME280;75865;42.672;23.360;2024-01-27T05:51:21;95492.75;;;5.90;66.59
85462;BME280;75865;42.672;23.360;2024-01-27T05:53:49;95492.00;;;5.89;66.40
85462;BME280;75865;42.672;23.360;2024-01-27T05:56:16;95495.03;;;5.91;66.22
85462;BME280;75865;42.672;23.360;2024-01-27T05:58:52;95505.22;;;5.93;66.16
85462;BME280;75865;42.672;23.360;2024-01-27T06:01:19;95493.56;;;5.94;66.52
85462;BME280;75865;42.672;23.360;2024-01-27T06:03:46;95504.09;;;5.94;66.24
85462;BME280;75865;42.672;23.360;2024-01-27T06:06:13;95498.03;;;5.90;66.72
85462;BME280;75865;42.672;23.360;2024-01-27T06:08:41;95495.31;;;5.86;66.35
85462;BME280;75865;42.672;23.360;2024-01-27T06:11:08;95504.66;;;5.84;66.54
85462;BME280;75865;42.672;23.360;2024-01-27T06:13:36;95512.91;;;5.82;66.37
85462;BME280;75865;42.672;23.360;2024-01-27T06:16:08;95515.88;;;5.80;66.54
85462;BME280;75865;42.672;23.360;2024-01-27T06:18:36;95519.94;;;5.74;66.87
85462;BME280;75865;42.672;23.360;2024-01-27T06:21:05;95538.66;;;5.69;67.17
85462;BME280;75865;42.672;23.360;2024-01-27T06:23:33;95534.09;;;5.66;67.48
85462;BME280;75865;42.672;23.360;2024-01-27T06:26:05;95532.16;;;5.63;67.38
85462;BME280;75865;42.672;23.360;2024-01-27T06:28:31;95523.00;;;5.57;67.60
85462;BME280;75865;42.672;23.360;2024-01-27T06:30:58;95527.50;;;5.57;67.77
85462;BME280;75865;42.672;23.360;2024-01-27T06:33:25;95546.28;;;5.55;67.34
85462;BME280;75865;42.672;23.360;2024-01-27T06:35:52;95542.84;;;5.51;67.39
85462;BME280;75865;42.672;23.360;2024-01-27T06:38:19;95543.19;;;5.50;67.90
85462;BME280;75865;42.672;23.360;2024-01-27T06:40:45;95544.72;;;5.51;67.81
85462;BME280;75865;42.672;23.360;2024-01-27T06:43:13;95551.41;;;5.48;68.10
85462;BME280;75865;42.672;23.360;2024-01-27T06:45:40;95549.22;;;5.50;68.10
85462;BME280;75865;42.672;23.360;2024-01-27T06:48:07;95559.75;;;5.50;68.06
85462;BME280;75865;42.672;23.360;2024-01-27T06:50:35;95550.72;;;5.51;68.48
85462;BME280;75865;42.672;23.360;2024-01-27T06:53:02;95557.44;;;5.49;68.78
85462;BME280;75865;42.672;23.360;2024-01-27T06:55:29;95575.53;;;5.50;68.59
85462;BME280;75865;42.672;23.360;2024-01-27T06:57:55;95559.44;;;5.55;68.27
85462;BME280;75865;42.672;23.360;2024-01-27T07:00:22;95553.91;;;5.60;68.72
85462;BME280;75865;42.672;23.360;2024-01-27T07:02:49;95545.75;;;5.65;67.91
85462;BME280;75865;42.672;23.360;2024-01-27T07:05:16;95535.56;;;5.64;68.11
85462;BME280;75865;42.672;23.360;2024-01-27T07:07:43;95541.34;;;5.73;67.26
85462;BME280;75865;42.672;23.360;2024-01-27T07:10:10;95544.44;;;5.78;66.39
85462;BME280;75865;42.672;23.360;2024-01-27T07:12:37;95527.94;;;5.81;66.27
85462;BME280;75865;42.672;23.360;2024-01-27T07:15:04;95527.69;;;5.87;66.03
85462;BME280;75865;42.672;23.360;2024-01-27T07:17:31;95525.47;;;5.89;65.21
85462;BME280;75865;42.672;23.360;2024-01-27T07:19:57;95532.28;;;5.90;64.83
85462;BME280;75865;42.672;23.360;2024-01-27T07:22:24;95525.09;;;5.90;64.98
85462;BME280;75865;42.672;23.360;2024-01-27T07:24:51;95552.63;;;5.93;64.69
85462;BME280;75865;42.672;23.360;2024-01-27T07:27:18;95544.03;;;5.96;64.31
85462;BME280;75865;42.672;23.360;2024-01-27T07:29:45;95549.38;;;5.99;64.03
85462;BME280;75865;42.672;23.360;2024-01-27T07:32:12;95566.72;;;6.00;64.04
85462;BME280;75865;42.672;23.360;2024-01-27T07:34:43;95576.53;;;6.03;63.92
85462;BME280;75865;42.672;23.360;2024-01-27T07:37:10;95590.19;;;6.09;63.40
85462;BME280;75865;42.672;23.360;2024-01-27T07:39:37;95614.31;;;6.11;63.38
85462;BME280;75865;42.672;23.360;2024-01-27T07:42:04;95625.28;;;6.13;63.01
85462;BME280;75865;42.672;23.360;2024-01-27T07:44:31;95634.31;;;6.12;62.94
85462;BME280;75865;42.672;23.360;2024-01-27T07:46:58;95644.44;;;6.10;61.82
85462;BME280;75865;42.672;23.360;2024-01-27T07:49:25;95627.78;;;6.06;61.78
85462;BME280;75865;42.672;23.360;2024-01-27T07:51:54;95632.00;;;6.10;60.90
85462;BME280;75865;42.672;23.360;2024-01-27T07:54:21;95627.44;;;6.07;60.67
85462;BME280;75865;42.672;23.360;2024-01-27T07:56:49;95625.13;;;6.06;60.95
85462;BME280;75865;42.672;23.360;2024-01-27T07:59:16;95638.63;;;6.01;60.91
85462;BME280;75865;42.672;23.360;2024-01-27T08:01:43;95644.22;;;5.99;60.62
85462;BME280;75865;42.672;23.360;2024-01-27T08:04:10;95633.63;;;5.96;59.55
85462;BME280;75865;42.672;23.360;2024-01-27T08:06:48;95659.84;;;5.89;59.94
85462;BME280;75865;42.672;23.360;2024-01-27T08:09:16;95630.50;;;5.90;60.34
85462;BME280;75865;42.672;23.360;2024-01-27T08:11:44;95629.38;;;5.91;60.58
85462;BME280;75865;42.672;23.360;2024-01-27T08:14:11;95634.50;;;6.03;62.48
85462;BME280;75865;42.672;23.360;2024-01-27T08:16:37;95626.44;;;6.15;60.74
85462;BME280;75865;42.672;23.360;2024-01-27T08:19:04;95622.00;;;6.20;59.81
85462;BME280;75865;42.672;23.360;2024-01-27T08:21:31;95635.25;;;6.23;59.47
85462;BME280;75865;42.672;23.360;2024-01-27T08:23:58;95634.06;;;6.21;59.72
85462;BME280;75865;42.672;23.360;2024-01-27T08:26:26;95622.41;;;6.22;59.64
85462;BME280;75865;42.672;23.360;2024-01-27T08:28:53;95623.63;;;6.28;59.03
85462;BME280;75865;42.672;23.360;2024-01-27T08:31:22;95638.84;;;6.34;59.01
85462;BME280;75865;42.672;23.360;2024-01-27T08:33:49;95621.94;;;6.39;58.19
85462;BME280;75865;42.672;23.360;2024-01-27T08:36:17;95609.13;;;6.60;57.87
85462;BME280;75865;42.672;23.360;2024-01-27T08:38:44;95635.66;;;6.97;57.80
85462;BME280;75865;42.672;23.360;2024-01-27T08:41:10;95609.47;;;7.11;55.91
85462;BME280;75865;42.672;23.360;2024-01-27T08:43:37;95617.41;;;7.71;55.30
85462;BME280;75865;42.672;23.360;2024-01-27T08:46:04;95597.81;;;8.46;52.72
85462;BME280;75865;42.672;23.360;2024-01-27T08:48:31;95628.00;;;9.51;50.88
85462;BME280;75865;42.672;23.360;2024-01-27T08:50:59;95605.22;;;10.62;48.22
85462;BME280;75865;42.672;23.360;2024-01-27T08:53:25;95611.13;;;11.65;45.59
85462;BME280;75865;42.672;23.360;2024-01-27T08:55:52;95596.47;;;12.71;43.54
85462;BME280;75865;42.672;23.360;2024-01-27T08:58:19;95604.78;;;13.59;41.00
85462;BME280;75865;42.672;23.360;2024-01-27T09:00:46;95608.28;;;14.17;39.92
85462;BME280;75865;42.672;23.360;2024-01-27T09:03:13;95608.59;;;14.76;38.37
85462;BME280;75865;42.672;23.360;2024-01-27T09:05:40;95594.38;;;15.26;36.41
85462;BME280;75865;42.672;23.360;2024-01-27T09:08:10;95606.56;;;15.50;36.06
85462;BME280;75865;42.672;23.360;2024-01-27T09:10:37;95573.63;;;15.53;35.46
85462;BME280;75865;42.672;23.360;2024-01-27T09:13:04;95580.09;;;15.75;34.79
85462;BME280;75865;42.672;23.360;2024-01-27T09:15:33;95586.00;;;15.86;34.38
85462;BME280;75865;42.672;23.360;2024-01-27T09:18:00;95587.34;;;14.69;35.42
85462;BME280;75865;42.672;23.360;2024-01-27T09:20:27;95572.09;;;13.55;36.90
85462;BME280;75865;42.672;23.360;2024-01-27T09:22:54;95569.66;;;12.48;39.09
85462;BME280;75865;42.672;23.360;2024-01-27T09:25:21;95579.47;;;11.92;40.40
85462;BME280;75865;42.672;23.360;2024-01-27T09:27:47;95556.16;;;11.37;41.63
85462;BME280;75865;42.672;23.360;2024-01-27T09:30:14;95571.06;;;10.81;42.94
85462;BME280;75865;42.672;23.360;2024-01-27T09:32:41;95569.19;;;10.39;43.83
85462;BME280;75865;42.672;23.360;2024-01-27T09:35:08;95590.72;;;10.02;44.55
85462;BME280;75865;42.672;23.360;2024-01-27T09:37:35;95594.03;;;9.67;45.72
85462;BME280;75865;42.672;23.360;2024-01-27T09:40:02;95604.53;;;9.50;46.26
85462;BME280;75865;42.672;23.360;2024-01-27T09:42:33;95605.22;;;9.36;46.74
85462;BME280;75865;42.672;23.360;2024-01-27T09:45:02;95623.31;;;9.23;47.08
85462;BME280;75865;42.672;23.360;2024-01-27T09:47:29;95608.91;;;9.21;47.46
85462;BME280;75865;42.672;23.360;2024-01-27T09:49:56;95624.78;;;9.14;47.50
85462;BME280;75865;42.672;23.360;2024-01-27T09:52:24;95653.09;;;9.06;47.80
85462;BME280;75865;42.672;23.360;2024-01-27T09:54:51;95640.44;;;8.82;48.15
85462;BME280;75865;42.672;23.360;2024-01-27T09:57:20;95633.47;;;8.63;48.45
85462;BME280;75865;42.672;23.360;2024-01-27T09:59:49;95631.81;;;8.44;48.85
85462;BME280;75865;42.672;23.360;2024-01-27T10:02:17;95636.94;;;8.30;49.39
85462;BME280;75865;42.672;23.360;2024-01-27T10:04:47;95617.91;;;8.17;49.78
85462;BME280;75865;42.672;23.360;2024-01-27T10:07:15;95645.38;;;8.06;50.11
85462;BME280;75865;42.672;23.360;2024-01-27T10:09:42;95652.47;;;7.98;50.35
85462;BME280;75865;42.672;23.360;2024-01-27T10:12:10;95656.50;;;7.88;50.66
85462;BME280;75865;42.672;23.360;2024-01-27T10:14:39;95653.06;;;7.84;50.67
85462;BME280;75865;42.672;23.360;2024-01-27T10:17:11;95661.94;;;7.69;51.13
85462;BME280;75865;42.672;23.360;2024-01-27T10:19:38;95660.31;;;7.61;51.84
85462;BME280;75865;42.672;23.360;2024-01-27T10:22:10;95669.72;;;7.58;51.88
85462;BME280;75865;42.672;23.360;2024-01-27T10:24:37;95671.09;;;7.49;52.01
85462;BME280;75865;42.672;23.360;2024-01-27T10:27:04;95690.84;;;7.29;52.24
85462;BME280;75865;42.672;23.360;2024-01-27T10:29:31;95675.72;;;7.03;52.97
85462;BME280;75865;42.672;23.360;2024-01-27T10:32:10;95672.16;;;6.92;53.63
85462;BME280;75865;42.672;23.360;2024-01-27T10:34:37;95679.50;;;6.79;54.09
85462;BME280;75865;42.672;23.360;2024-01-27T10:37:04;95676.53;;;6.80;54.37
85462;BME280;75865;42.672;23.360;2024-01-27T10:39:31;95675.84;;;6.87;54.27
85462;BME280;75865;42.672;23.360;2024-01-27T10:42:02;95672.88;;;6.88;54.32
85462;BME280;75865;42.672;23.360;2024-01-27T10:44:30;95675.06;;;6.83;54.28
85462;BME280;75865;42.672;23.360;2024-01-27T10:47:01;95678.09;;;6.85;54.51
85462;BME280;75865;42.672;23.360;2024-01-27T10:49:32;95682.59;;;6.84;54.20
85462;BME280;75865;42.672;23.360;2024-01-27T10:52:06;95685.97;;;6.81;54.67
85462;BME280;75865;42.672;23.360;2024-01-27T10:54:40;95683.94;;;6.75;54.63
85462;BME280;75865;42.672;23.360;2024-01-27T10:57:09;95682.03;;;6.72;55.11
85462;BME280;75865;42.672;23.360;2024-01-27T10:59:37;95686.91;;;6.70;54.99
85462;BME280;75865;42.672;23.360;2024-01-27T11:02:10;95706.75;;;6.64;55.04
85462;BME280;75865;42.672;23.360;2024-01-27T11:04:40;95690.34;;;6.51;55.94
85462;BME280;75865;42.672;23.360;2024-01-27T11:07:08;95704.25;;;6.48;56.00
85462;BME280;75865;42.672;23.360;2024-01-27T11:09:36;95706.50;;;6.49;56.25
85462;BME280;75865;42.672;23.360;2024-01-27T11:12:03;95700.84;;;6.47;56.13
85462;BME280;75865;42.672;23.360;2024-01-27T11:14:31;95709.44;;;6.44;56.87
85462;BME280;75865;42.672;23.360;2024-01-27T11:16:58;95699.94;;;6.40;56.79
85462;BME280;75865;42.672;23.360;2024-01-27T11:19:26;95708.16;;;6.35;57.00
85462;BME280;75865;42.672;23.360;2024-01-27T11:22:01;95695.53;;;6.25;57.43
85462;BME280;75865;42.672;23.360;2024-01-27T11:24:28;95705.00;;;6.29;57.41
85462;BME280;75865;42.672;23.360;2024-01-27T11:27:05;95702.78;;;6.31;57.49
85462;BME280;75865;42.672;23.360;2024-01-27T11:29:35;95708.75;;;6.28;57.83
85462;BME280;75865;42.672;23.360;2024-01-27T11:32:03;95717.38;;;6.25;57.49
85462;BME280;75865;42.672;23.360;2024-01-27T11:34:45;95727.44;;;6.20;57.67
85462;BME280;75865;42.672;23.360;2024-01-27T11:37:15;95732.06;;;6.07;58.31
85462;BME280;75865;42.672;23.360;2024-01-27T11:39:42;95721.41;;;6.00;57.98
85462;BME280;75865;42.672;23.360;2024-01-27T11:42:10;95738.25;;;5.95;58.30
85462;BME280;75865;42.672;23.360;2024-01-27T11:44:40;95746.50;;;5.94;58.77
85462;BME280;75865;42.672;23.360;2024-01-27T11:47:18;95716.75;;;5.93;58.32
85462;BME280;75865;42.672;23.360;2024-01-27T11:49:52;95726.84;;;5.91;58.14
85462;BME280;75865;42.672;23.360;2024-01-27T11:52:22;95725.94;;;5.84;58.66
85462;BME280;75865;42.672;23.360;2024-01-27T11:54:56;95722.19;;;5.85;57.97
85462;BME280;75865;42.672;23.360;2024-01-27T11:57:24;95738.34;;;5.83;58.28
85462;BME280;75865;42.672;23.360;2024-01-27T11:59:54;95724.81;;;5.85;57.80
85462;BME280;75865;42.672;23.360;2024-01-27T12:02:21;95729.00;;;5.86;57.77
85462;BME280;75865;42.672;23.360;2024-01-27T12:04:49;95754.75;;;5.92;58.00
85462;BME280;75865;42.672;23.360;2024-01-27T12:07:16;95732.22;;;5.95;57.30
85462;BME280;75865;42.672;23.360;2024-01-27T12:09:50;95726.25;;;5.98;56.61
85462;BME280;75865;42.672;23.360;2024-01-27T12:12:17;95739.50;;;6.01;56.67
85462;BME280;75865;42.672;23.360;2024-01-27T12:14:51;95749.06;;;6.09;56.04
85462;BME280;75865;42.672;23.360;2024-01-27T12:17:20;95743.59;;;6.18;55.74
85462;BME280;75865;42.672;23.360;2024-01-27T12:19:52;95758.59;;;6.33;55.62
85462;BME280;75865;42.672;23.360;2024-01-27T12:22:25;95743.38;;;6.46;55.42
85462;BME280;75865;42.672;23.360;2024-01-27T12:24:56;95733.44;;;6.59;54.68
85462;BME280;75865;42.672;23.360;2024-01-27T12:27:23;95752.88;;;6.73;53.94
85462;BME280;75865;42.672;23.360;2024-01-27T12:29:50;95744.00;;;6.81;54.07
85462;BME280;75865;42.672;23.360;2024-01-27T12:32:17;95751.97;;;6.85;53.12
85462;BME280;75865;42.672;23.360;2024-01-27T12:34:44;95737.66;;;6.86;53.42
85462;BME280;75865;42.672;23.360;2024-01-27T12:37:16;95730.16;;;6.88;53.61
85462;BME280;75865;42.672;23.360;2024-01-27T12:39:44;95718.06;;;6.87;53.37
85462;BME280;75865;42.672;23.360;2024-01-27T12:42:11;95735.03;;;6.86;52.91
85462;BME280;75865;42.672;23.360;2024-01-27T12:44:39;95736.50;;;6.83;53.58
85462;BME280;75865;42.672;23.360;2024-01-27T12:47:06;95753.91;;;6.88;53.32
85462;BME280;75865;42.672;23.360;2024-01-27T12:49:33;95738.41;;;6.86;53.14
85462;BME280;75865;42.672;23.360;2024-01-27T12:52:01;95752.69;;;6.82;53.29
85462;BME280;75865;42.672;23.360;2024-01-27T12:54:28;95754.75;;;6.73;53.04
85462;BME280;75865;42.672;23.360;2024-01-27T12:56:55;95748.53;;;6.62;53.41
85462;BME280;75865;42.672;23.360;2024-01-27T12:59:22;95737.94;;;6.58;53.68
85462;BME280;75865;42.672;23.360;2024-01-27T13:01:49;95733.72;;;6.53;54.24